Flight Track Log - Related Links

Times and Time Zones

All times are in EDT time to prevent confusion due to time zone crossing. See the NGF5LP flight status page for this flight to view local times or setup timezone preferences in your user account.

Time Position Orientation Groundspeed Altitude Reporting Facility
EDT Latitude Longitude Course Direction KTS MPH feet Rate Location/Type
Thu 08:47:55 AM 42.3667 -71.0000 360° North 84 97 500  Level KA90
Thu 08:48:37 AM 42.3833 -71.0000 360° North 91 105 1,300 1,176 Climbing KA90
Thu 08:49:37 AM 42.4167 -71.0333 324° Northwest 117 135 2,500 1,100 Climbing KA90
Thu 08:50:37 AM 42.4500 -71.0500 340° North 128 147 3,500 714 Climbing KA90
Thu 08:51:43 AM 42.4833 -71.0667 340° North 138 159 4,000 364 Climbing KA90
Thu 08:52:49 AM 42.5333 -71.0667 360° North 143 165 4,300 412 Climbing KA90
Thu 08:53:25 AM 42.5500 -71.0667 360° North 139 160 4,700 789 Climbing KA90
Thu 08:54:43 AM 42.6000 -71.0833 346° North 128 147 5,800 833 Climbing KA90
Thu 08:55:49 AM 42.6333 -71.1167 324° Northwest 123 142 6,700 737 Climbing KA90
Thu 08:56:37 AM 42.6500 -71.1333 324° Northwest 128 147 7,200 556 Climbing KA90
Thu 08:57:37 AM 42.6833 -71.1667 324° Northwest 131 151 7,700 524 Climbing KA90
Thu 08:58:43 AM 42.7000 -71.2000 304° West 127 146 8,300 591 Climbing KA90
Thu 08:59:49 AM 42.7333 -71.2333 324° Northwest 124 143 9,000 600 Climbing KA90
Thu 09:00:43 AM 42.7667 -71.2500 340° North 122 140 9,500 579 Climbing KA90
Thu 09:01:43 AM 42.7833 -71.2833 304° West 123 142 10,100 250 Climbing KA90
Thu 09:02:43 AM 42.8167 -71.3167 324° Northwest 139 160 10,000 -50 Descending KA90
Thu 09:03:43 AM 42.8500 -71.3500 324° Northwest 143 165 10,000  Level KA90
Thu 09:04:43 AM 42.8833 -71.3833 324° Northwest 139 160 10,000  Level KA90
Thu 09:05:49 AM 42.9000 -71.4333 294° West 140 161 10,000  Level KA90
Thu 09:06:49 AM 42.9167 -71.4833 294° West 141 162 10,000  Level KA90
Thu 09:07:43 AM 42.9333 -71.5167 304° West 141 162 10,000  Level KA90
Thu 09:08:43 AM 42.9667 -71.5667 312° West 141 162 10,000  Level KA90
Thu 09:09:43 AM 42.9833 -71.6000 304° West 142 163 10,000  Level KA90
Thu 09:10:51 AM 43.0019 -71.6508 297° West 145 167 10,000  Level Boston Center
Thu 09:11:51 AM 43.0275 -71.7044 303° West 150 173 10,000  Level Boston Center
Thu 09:12:51 AM 43.0464 -71.7469 301° West 150 173 10,000  Level Boston Center
Thu 09:13:51 AM 43.0697 -71.7978 302° West 150 173 10,000 50 Level Boston Center
Thu 09:14:51 AM 43.0886 -71.8375 303° West 150 173 10,100  Climbing Boston Center
Thu 09:15:51 AM 43.1139 -71.8911 303° West 150 173 10,000 -50 Descending Boston Center
Thu 09:16:51 AM 43.1328 -71.9308 303° West 145 167 10,000 50 Level Boston Center
Thu 09:17:51 AM 43.1561 -71.9819 302° West 145 167 10,100  Climbing Boston Center
Thu 09:18:51 AM 43.1750 -72.0217 303° West 145 167 10,000  Descending Boston Center
Thu 09:19:51 AM 43.2000 -72.0728 304° West 145 167 10,100 50 Climbing Boston Center
Thu 09:20:51 AM 43.2189 -72.1125 303° West 140 161 10,100 -50 Level Boston Center
Thu 09:21:51 AM 43.2419 -72.1664 300° West 140 161 10,000  Descending Boston Center
Thu 09:22:51 AM 43.2608 -72.2064 303° West 140 161 10,100 50 Climbing Boston Center
Thu 09:23:51 AM 43.2839 -72.2547 303° West 140 161 10,100  Level Boston Center
Thu 09:24:51 AM 43.3028 -72.3003 300° West 140 161 10,100  Level Boston Center
Thu 09:25:51 AM 43.3256 -72.3458 305° West 140 161 10,100  Level Boston Center
Thu 09:26:51 AM 43.3486 -72.3917 305° West 140 161 10,100 -50 Level Boston Center
Thu 09:27:51 AM 43.3694 -72.4400 301° West 140 161 10,000  Descending Boston Center
Thu 09:28:51 AM 43.3903 -72.4886 301° West 140 161 10,100  Climbing Boston Center
Thu 09:29:51 AM 43.4111 -72.5344 302° West 140 161 10,000  Descending Boston Center
Thu 09:30:51 AM 43.4339 -72.5803 304° West 140 161 10,100 50 Climbing Boston Center
Thu 09:31:51 AM 43.4547 -72.6289 301° West 140 161 10,100  Level Boston Center
Thu 09:32:51 AM 43.4775 -72.6775 303° West 140 161 10,100  Level Boston Center
Thu 09:34:03 AM 43.4961 -72.7264 298° West 140 161 10,100  Level Boston Center
Thu 09:35:03 AM 43.5253 -72.7808 306° West 140 161 10,100  Level Boston Center
Thu 09:36:03 AM 43.5458 -72.8297 300° West 140 161 10,100  Level Boston Center
Thu 09:37:03 AM 43.5667 -72.8756 302° West 140 161 10,100  Level Boston Center
Thu 09:38:03 AM 43.5872 -72.9272 299° West 140 161 10,100 -50 Level Boston Center
Thu 09:39:03 AM 43.6119 -72.9733 307° West 140 161 10,000  Descending Boston Center
Thu 09:40:03 AM 43.6306 -73.0225 298° West 140 161 10,100  Climbing Boston Center
Thu 09:41:03 AM 43.6533 -73.0686 304° West 145 167 10,000  Descending Boston Center
Thu 09:42:03 AM 43.6758 -73.1203 301° West 145 167 10,100 50 Climbing Boston Center
Thu 09:43:03 AM 43.7047 -73.1608 315° West 145 167 10,100  Level Boston Center
Thu 09:44:03 AM 43.7381 -73.1958 323° Northwest 151 174 10,100  Level Boston Center
Thu 09:45:03 AM 43.7731 -73.2308 324° Northwest 151 174 10,100  Level Boston Center
Thu 09:46:03 AM 43.8083 -73.2628 327° Northwest 151 174 10,100  Level Boston Center
Thu 09:47:03 AM 43.8433 -73.3008 322° Northwest 151 174 10,100  Level Boston Center
Thu 09:48:03 AM 43.8786 -73.3358 324° Northwest 151 174 10,100  Level Boston Center
Thu 09:49:03 AM 43.9136 -73.3708 324° Northwest 151 174 10,100  Level Boston Center
Thu 09:50:03 AM 43.9469 -73.4061 323° Northwest 151 174 10,100  Level Boston Center
Thu 09:51:03 AM 43.9819 -73.4383 326° Northwest 151 174 10,100  Level Boston Center
Thu 09:52:03 AM 44.0108 -73.4822 312° West 145 167 10,100  Level Boston Center
Thu 09:53:03 AM 44.0375 -73.5289 308° West 150 173 10,100  Level Boston Center
Thu 09:54:03 AM 44.0642 -73.5728 310° West 155 178 10,100  Level Boston Center
Thu 09:55:03 AM 44.0928 -73.6194 310° West 160 184 10,100  Level Boston Center
Thu 09:56:03 AM 44.1194 -73.6661 309° West 160 184 10,100  Level Boston Center
Thu 09:57:03 AM 44.1481 -73.7103 312° West 160 184 10,100  Level Boston Center
Thu 09:58:03 AM 44.1747 -73.7542 310° West 160 184 10,100 -50 Level Boston Center
Thu 09:59:03 AM 44.2033 -73.7983 312° West 160 184 10,000 -50 Descending Boston Center
Thu 10:00:03 AM 44.2319 -73.8453 310° West 160 184 10,000  Level Boston Center
Thu 10:01:03 AM 44.2606 -73.8925 310° West 160 184 10,000  Level Boston Center
Thu 10:02:03 AM 44.2892 -73.9394 310° West 160 184 10,000  Level Boston Center
Thu 10:03:03 AM 44.3156 -73.9867 308° West 160 184 10,000  Level Boston Center
Thu 10:04:03 AM 44.3461 -74.0339 312° West 160 184 10,000 -200 Level Boston Center
Thu 10:05:03 AM 44.3747 -74.0811 310° West 160 184 9,600 -450 Descending Boston Center
Thu 10:06:03 AM 44.4072 -74.1400 308° West 160 184 9,100 -550 Descending Boston Center
Thu 10:07:03 AM 44.4375 -74.1933 308° West 166 191 8,500 -550 Descending Boston Center
Thu 10:08:03 AM 44.4681 -74.2436 310° West 166 191 8,000 -550 Descending Boston Center
Thu 10:09:03 AM 44.5025 -74.2972 312° West 171 197 7,400 -500 Descending Boston Center
Thu 10:10:03 AM 44.5331 -74.3533 307° West 176 203 7,000 -200 Descending Boston Center
Thu 10:11:03 AM 44.5403 -74.4178 279° West 169 194 7,000  Level Boston Center
Thu 10:12:03 AM 44.5494 -74.4819 281° West 169 194 7,000 -50 Level Boston Center
Thu 10:13:03 AM 44.5586 -74.5494 281° West 169 194 6,900 -100 Descending Boston Center
Thu 10:14:03 AM 44.5681 -74.6108 282° West 164 189 6,800 -50 Descending Boston Center
Thu 10:15:03 AM 44.5750 -74.6753 279° West 164 189 6,800 45 Level Boston Center
Thu 10:16:15 AM 44.5861 -74.7544 281° West 164 189 6,900  Climbing Boston Center
Thu 10:17:15 AM 44.5972 -74.8192 284° West 164 189 6,800 -50 Descending Boston Center
Thu 10:18:15 AM 44.6064 -74.8836 281° West 164 189 6,800  Level Boston Center
Thu 10:19:15 AM 44.6153 -74.9511 281° West 164 189 6,800 -50 Level Boston Center
Thu 10:20:15 AM 44.6222 -75.0097 279° West 164 189 6,700 -300 Descending Boston Center
Thu 10:21:15 AM 44.6314 -75.0742 281° West 169 194 6,200 -550 Descending Boston Center
Thu 10:22:15 AM 44.6400 -75.1447 280° West 164 189 5,600 -600 Descending Boston Center
Thu 10:23:15 AM 44.6469 -75.2064 279° West 164 189 5,000 -650 Descending Boston Center
Thu 10:24:15 AM 44.6558 -75.2650 282° West 164 189 4,300 -600 Descending Boston Center
Thu 10:25:15 AM 44.6589 -75.3178 275° West 164 189 3,800 -500 Descending Boston Center

Login

Don't have an account? Register now (free) for customized features, flight alerts, and more!